Terminal Aerodrome Forecast
Issued by NWS

Home | Current Version | Previous Version | Text Only | Print | Product List | Glossary On
Versions: 1 2 3 4 5 6 7 8 9 10 11 12
000
FTAK31 PANC 230535
TAFAAQ
TAF
PAAQ 230535Z 2306/2406 14015KT P6SM VCSH BKN080
     FM230900 12007KT P6SM SCT050 BKN080
     FM232200 15012KT P6SM VCSH SCT050 BKN080=

USA.gov is the U.S. government's official web portal to all federal, state and local government web resources and services.